Radley, Kansas
Current Conditions -  °F | °C
As of 8:15 AM on Friday 19 Dec 2014 (Local Time) from KPTS Reporting Station
Haze Haze  
Wind Chill: 36°   Ceiling: 300
Heat Index: 36°   Visibility: 3mi
Dew Point: 36°   Wind: 3mph
Humidity: 100%   Direction: 30°NNE
Pressure: 30.26"   Gusts: NA
Location:  37.4268°N, 94.7004°W
Report Text: KPTS 191415Z AUTO 03003KT 3SM BR OVC003 02/02 A3026 RMK AO2 T00200021
Loading
Personal Weather Stations






























Interactive Weather Map New forecast layout! Learn more

10-Day Weather Forecast

Advertisements
Track Severe Weather on mobile